createdAt,value
2018-02-14T00:02:25.886Z,14.77
2018-02-14T00:04:53.406Z,15.20
2018-02-14T00:07:20.906Z,14.43
2018-02-14T00:09:48.376Z,14.80
2018-02-14T00:12:15.861Z,18.33
2018-02-14T00:14:44.124Z,14.00
2018-02-14T00:17:11.636Z,11.80
2018-02-14T00:19:39.142Z,11.37
2018-02-14T00:22:07.388Z,11.97
2018-02-14T00:24:35.657Z,13.43
2018-02-14T00:27:03.134Z,13.80
2018-02-14T00:29:30.633Z,15.17
2018-02-14T00:31:58.879Z,14.60
2018-02-14T00:34:26.358Z,13.93
2018-02-14T00:36:54.589Z,11.37
2018-02-14T00:39:22.121Z,13.10
2018-02-14T00:41:49.604Z,10.27
2018-02-14T00:44:17.892Z,13.13
2018-02-14T00:46:45.363Z,15.87
2018-02-14T00:49:12.877Z,14.40
2018-02-14T00:51:40.428Z,14.03
2018-02-14T00:54:07.919Z,14.73
2018-02-14T00:56:35.395Z,12.37
2018-02-14T00:59:02.924Z,14.17
2018-02-14T01:01:30.391Z,11.30
2018-02-14T01:03:57.864Z,12.03
2018-02-14T01:06:25.380Z,10.83
2018-02-14T01:08:52.888Z,13.37
2018-02-14T01:11:20.445Z,12.10
2018-02-14T01:13:47.901Z,13.20
2018-02-14T01:16:15.396Z,11.60
2018-02-14T01:18:48.883Z,16.33
2018-02-14T01:21:17.149Z,12.90
2018-02-14T01:23:45.406Z,12.93
2018-02-14T01:26:12.907Z,15.60
2018-02-14T01:28:40.379Z,11.47
2018-02-14T01:31:07.881Z,12.63
2018-02-14T01:33:35.360Z,13.13
2018-02-14T01:36:03.634Z,10.80
2018-02-14T01:38:31.871Z,13.93
2018-02-14T01:40:59.389Z,13.20
2018-02-14T01:43:26.846Z,19.13
2018-02-14T01:45:54.391Z,18.83
2018-02-14T01:48:21.865Z,18.43
2018-02-14T01:50:49.358Z,13.37
2018-02-14T01:53:16.869Z,16.40
2018-02-14T01:55:45.109Z,27.17
2018-02-14T01:58:14.226Z,20.17
2018-02-14T02:00:42.487Z,17.17
2018-02-14T02:03:09.983Z,14.70
2018-02-14T02:05:37.464Z,13.87
2018-02-14T02:08:04.960Z,12.00
2018-02-14T02:10:32.446Z,16.50
2018-02-14T02:13:00.732Z,19.20
2018-02-14T02:15:28.206Z,13.70
2018-02-14T02:17:55.695Z,13.73
2018-02-14T02:20:23.180Z,20.80
2018-02-14T02:22:51.464Z,15.77
2018-02-14T02:25:19.710Z,13.20
2018-02-14T02:27:47.214Z,11.90
2018-02-14T02:30:14.681Z,18.83
2018-02-14T02:32:42.194Z,22.87
2018-02-14T02:35:09.664Z,18.23
2018-02-14T02:37:37.225Z,16.87
2018-02-14T02:40:16.563Z,15.17
2018-02-14T02:42:44.858Z,11.73
2018-02-14T02:45:12.775Z,15.77
2018-02-14T02:47:40.299Z,26.03
2018-02-14T02:50:07.815Z,24.20
2018-02-14T02:52:35.626Z,20.37
2018-02-14T02:55:03.127Z,17.10
2018-02-14T02:57:30.621Z,18.03
2018-02-14T02:59:58.137Z,13.57
2018-02-14T03:02:25.615Z,20.13
2018-02-14T03:04:53.888Z,22.63
2018-02-14T03:07:21.983Z,18.13
2018-02-14T03:09:50.237Z,17.57
2018-02-14T03:12:17.718Z,15.00
2018-02-14T03:14:46.028Z,22.57
2018-02-14T03:17:13.495Z,22.27
2018-02-14T03:19:40.996Z,13.27
2018-02-14T03:22:09.306Z,15.33
2018-02-14T03:24:36.810Z,14.20
2018-02-14T03:27:04.425Z,15.40
2018-02-14T03:29:31.912Z,17.10
2018-02-14T03:32:00.174Z,12.57
2018-02-14T03:34:27.679Z,12.97
2018-02-14T03:36:55.918Z,10.83
2018-02-14T03:39:23.426Z,15.50
2018-02-14T03:41:50.914Z,16.43
2018-02-14T03:44:18.430Z,24.37
2018-02-14T03:46:46.725Z,21.47
2018-02-14T03:49:14.220Z,13.67
2018-02-14T03:51:42.475Z,10.40
2018-02-14T03:54:09.981Z,10.67
2018-02-14T03:56:37.455Z,12.77
2018-02-14T03:59:05.722Z,13.63
2018-02-14T04:01:33.203Z,15.10
2018-02-14T04:04:01.480Z,14.67
2018-02-14T04:06:29.732Z,9.83
2018-02-14T04:08:57.231Z,12.97
2018-02-14T04:11:24.695Z,14.90
2018-02-14T04:13:52.196Z,17.80
2018-02-14T04:16:19.811Z,17.23
2018-02-14T04:18:47.665Z,16.53
2018-02-14T04:21:15.149Z,11.67
2018-02-14T04:23:42.641Z,17.87
2018-02-14T04:26:10.121Z,15.43
2018-02-14T04:28:38.393Z,12.73
2018-02-14T04:31:05.909Z,10.60
2018-02-14T04:33:33.378Z,11.50
2018-02-14T04:36:00.871Z,11.40
2018-02-14T04:38:29.115Z,14.03
2018-02-14T04:40:56.602Z,14.63
2018-02-14T04:43:24.830Z,12.50
2018-02-14T04:45:52.343Z,14.67
2018-02-14T04:48:20.582Z,20.10
2018-02-14T04:50:48.086Z,15.57
2018-02-14T04:53:15.602Z,14.03
2018-02-14T04:55:43.287Z,13.03
2018-02-14T04:58:11.518Z,23.30
2018-02-14T05:00:39.003Z,19.43
2018-02-14T05:03:06.512Z,18.97
2018-02-14T05:05:34.038Z,19.37
2018-02-14T05:08:01.540Z,17.77
2018-02-14T05:10:29.002Z,20.83
2018-02-14T05:12:56.618Z,17.47
2018-02-14T05:15:24.864Z,17.93
2018-02-14T05:17:52.344Z,14.37
2018-02-14T05:20:19.853Z,22.17
2018-02-14T05:22:47.328Z,16.80
2018-02-14T05:25:14.853Z,15.50
2018-02-14T05:27:42.326Z,19.43
2018-02-14T05:30:09.874Z,24.70
2018-02-14T05:32:37.365Z,29.23
2018-02-14T05:35:04.867Z,47.47
2018-02-14T05:37:33.101Z,39.57
2018-02-14T05:40:00.632Z,26.13
2018-02-14T05:42:28.101Z,23.77
2018-02-14T05:44:56.366Z,26.47
2018-02-14T05:47:23.914Z,27.27
2018-02-14T05:49:51.419Z,28.50
2018-02-14T05:52:18.908Z,20.67
2018-02-14T05:54:47.158Z,17.57
2018-02-14T05:57:14.635Z,89.30
2018-02-14T05:59:42.907Z,68.60
2018-02-14T06:02:11.138Z,35.37
2018-02-14T06:04:38.636Z,32.53
2018-02-14T06:07:06.880Z,24.83
2018-02-14T06:09:34.393Z,32.90
2018-02-14T06:12:01.867Z,31.10
2018-02-14T06:14:29.363Z,31.60
2018-02-14T06:16:56.844Z,28.13
2018-02-14T06:19:25.145Z,21.93
2018-02-14T06:21:52.629Z,20.20
2018-02-14T06:24:20.103Z,18.50
2018-02-14T06:26:47.600Z,12.93
2018-02-14T06:29:15.888Z,17.40
2018-02-14T06:31:43.354Z,25.47
2018-02-14T06:34:10.828Z,19.53
2018-02-14T06:36:38.319Z,19.33
2018-02-14T06:39:05.805Z,17.33
2018-02-14T06:41:34.070Z,15.77
2018-02-14T06:44:01.557Z,15.13
2018-02-14T06:46:29.057Z,18.57
2018-02-14T06:48:56.518Z,13.73
2018-02-14T06:51:24.019Z,16.87
2018-02-14T06:53:52.252Z,14.00
2018-02-14T06:56:19.759Z,28.70
2018-02-14T06:58:47.232Z,34.00
2018-02-14T07:01:14.737Z,53.47
2018-02-14T07:03:42.215Z,50.73
2018-02-14T07:06:10.536Z,55.80
2018-02-14T07:08:37.991Z,47.33
2018-02-14T07:11:05.487Z,25.10
2018-02-14T07:13:32.958Z,20.97
2018-02-14T07:16:01.234Z,30.70
2018-02-14T07:18:28.736Z,26.93
2018-02-14T07:20:56.230Z,26.97
2018-02-14T07:23:29.443Z,22.07
2018-02-14T07:25:56.949Z,25.83
2018-02-14T07:28:24.411Z,24.60
2018-02-14T07:30:51.908Z,21.83
2018-02-14T07:33:19.374Z,25.67
2018-02-14T07:35:47.656Z,31.27
2018-02-14T07:38:15.895Z,28.80
2018-02-14T07:40:43.736Z,34.03
2018-02-14T07:43:11.187Z,32.60
2018-02-14T07:45:38.675Z,32.20
2018-02-14T07:48:06.176Z,37.70
2018-02-14T07:50:34.418Z,31.60
2018-02-14T07:53:01.925Z,28.30
2018-02-14T07:55:30.171Z,28.57
2018-02-14T07:57:57.676Z,31.77
2018-02-14T08:00:25.157Z,28.93
2018-02-14T08:02:52.668Z,30.03
2018-02-14T08:05:20.911Z,28.03
2018-02-14T08:07:48.430Z,29.13
2018-02-14T08:10:15.903Z,25.50
2018-02-14T08:12:43.409Z,27.77
2018-02-14T08:15:11.655Z,28.33
2018-02-14T08:17:39.186Z,27.03
2018-02-14T08:20:06.652Z,24.10
2018-02-14T08:22:34.201Z,27.87
2018-02-14T08:25:01.676Z,22.57
2018-02-14T08:27:29.191Z,30.97
2018-02-14T08:29:56.680Z,27.67
2018-02-14T08:32:24.189Z,26.43
2018-02-14T08:34:52.435Z,25.03
2018-02-14T08:37:19.933Z,18.23
2018-02-14T08:39:48.175Z,19.77
2018-02-14T08:42:15.700Z,20.93
2018-02-14T08:44:43.177Z,23.53
2018-02-14T08:47:10.649Z,16.53
2018-02-14T08:49:38.218Z,18.60
2018-02-14T08:52:05.686Z,13.37
2018-02-14T08:54:33.192Z,15.27
2018-02-14T08:57:00.669Z,16.97
2018-02-14T08:59:28.177Z,19.87
2018-02-14T09:01:56.435Z,13.60
2018-02-14T09:04:24.708Z,13.17
2018-02-14T09:06:52.962Z,16.93
2018-02-14T09:09:20.585Z,14.37
2018-02-14T09:11:48.064Z,15.13
2018-02-14T09:14:15.538Z,15.77
2018-02-14T09:16:43.044Z,14.57
2018-02-14T09:19:10.544Z,13.23
2018-02-14T09:21:38.051Z,13.57
2018-02-14T09:24:06.337Z,12.30
2018-02-14T09:26:33.836Z,14.10
2018-02-14T09:29:01.316Z,14.33
2018-02-14T09:31:28.827Z,13.23
2018-02-14T09:33:56.440Z,12.90
2018-02-14T09:36:23.948Z,13.00
2018-02-14T09:38:51.428Z,15.07
2018-02-14T09:41:19.702Z,12.53
2018-02-14T09:43:47.175Z,12.47
2018-02-14T09:46:14.695Z,12.10
2018-02-14T09:48:42.193Z,15.07
2018-02-14T09:51:10.464Z,13.30
2018-02-14T09:53:37.940Z,11.63
2018-02-14T09:56:05.450Z,12.07
2018-02-14T09:58:32.940Z,13.70
2018-02-14T10:01:00.461Z,13.87
2018-02-14T10:03:27.976Z,12.57
2018-02-14T10:05:55.505Z,11.93
2018-02-14T10:08:22.983Z,10.30
2018-02-14T10:10:50.595Z,11.23
2018-02-14T10:13:18.070Z,11.57
2018-02-14T10:15:45.572Z,14.27
2018-02-14T10:18:13.857Z,12.13
2018-02-14T10:20:42.153Z,11.30
2018-02-14T10:23:09.625Z,10.33
2018-02-14T10:25:37.111Z,10.27
2018-02-14T10:28:04.616Z,10.93
2018-02-14T10:30:32.856Z,11.03
2018-02-14T10:33:00.371Z,10.37
2018-02-14T10:35:27.848Z,10.43
2018-02-14T10:37:55.387Z,12.63
2018-02-14T10:40:22.865Z,11.23
2018-02-14T10:42:50.365Z,10.27
2018-02-14T10:45:18.644Z,9.53
2018-02-14T10:47:46.921Z,11.47
2018-02-14T10:50:15.166Z,9.07
2018-02-14T10:52:42.663Z,9.97
2018-02-14T10:55:10.936Z,9.53
2018-02-14T10:57:39.217Z,9.17
2018-02-14T11:00:07.453Z,8.63
2018-02-14T11:02:40.577Z,9.40
2018-02-14T11:05:14.388Z,9.70
2018-02-14T11:07:42.662Z,9.80
2018-02-14T11:10:10.946Z,13.03
2018-02-14T11:12:39.204Z,9.50
2018-02-14T11:15:07.445Z,9.00
2018-02-14T11:17:34.932Z,10.47
2018-02-14T11:20:03.209Z,10.17
2018-02-14T11:22:30.745Z,10.00
2018-02-14T11:24:58.214Z,9.43
2018-02-14T11:27:25.691Z,9.90
2018-02-14T11:29:53.976Z,9.63
2018-02-14T11:32:22.221Z,8.20
2018-02-14T11:34:49.736Z,9.53
2018-02-14T11:37:17.213Z,8.87
2018-02-14T11:39:44.703Z,9.47
2018-02-14T11:42:12.184Z,8.63
2018-02-14T11:44:40.444Z,8.87
2018-02-14T11:47:08.699Z,9.10
2018-02-14T11:49:36.207Z,9.17
2018-02-14T11:52:03.679Z,8.90
2018-02-14T11:54:31.168Z,8.73
2018-02-14T11:56:58.640Z,8.70
2018-02-14T11:59:26.152Z,9.07
2018-02-14T12:01:53.623Z,8.80
2018-02-14T12:04:21.137Z,11.20
2018-02-14T12:06:49.373Z,9.30
2018-02-14T12:09:16.867Z,8.60
2018-02-14T12:11:45.129Z,9.43
2018-02-14T12:14:13.420Z,8.67
2018-02-14T12:16:41.665Z,8.80
2018-02-14T12:19:09.187Z,9.80
2018-02-14T12:21:36.666Z,6.97
2018-02-14T12:24:04.167Z,8.53
2018-02-14T12:26:32.421Z,9.03
2018-02-14T12:28:59.934Z,8.53
2018-02-14T12:31:27.405Z,7.67
2018-02-14T12:33:54.905Z,8.43
2018-02-14T12:36:22.380Z,12.67
2018-02-14T12:38:50.668Z,9.37
2018-02-14T12:41:18.142Z,7.60
2018-02-14T12:43:45.660Z,8.43
2018-02-14T12:46:13.897Z,8.57
2018-02-14T12:48:41.424Z,8.30
2018-02-14T12:51:08.905Z,8.40
2018-02-14T12:53:36.435Z,7.90
2018-02-14T12:56:04.680Z,8.67
2018-02-14T12:58:32.174Z,8.13
2018-02-14T13:00:59.641Z,7.70
2018-02-14T13:03:27.148Z,7.40
2018-02-14T13:05:54.625Z,7.90
2018-02-14T13:08:22.893Z,9.63
2018-02-14T13:10:50.369Z,7.67
2018-02-14T13:13:17.893Z,8.03
2018-02-14T13:15:45.366Z,9.00
2018-02-14T13:18:12.880Z,9.03
2018-02-14T13:20:40.357Z,8.23
2018-02-14T13:23:07.838Z,8.00
2018-02-14T13:25:35.333Z,8.43
2018-02-14T13:28:02.812Z,8.30
2018-02-14T13:30:30.327Z,7.90
2018-02-14T13:32:58.606Z,9.27
2018-02-14T13:35:26.868Z,7.10
2018-02-14T13:37:54.356Z,7.70
2018-02-14T13:40:21.851Z,8.37
2018-02-14T13:42:49.333Z,7.40
2018-02-14T13:45:16.828Z,7.70
2018-02-14T13:47:44.317Z,7.00
2018-02-14T13:50:11.816Z,6.83
2018-02-14T13:52:39.292Z,7.33
2018-02-14T13:55:07.555Z,6.77
2018-02-14T13:57:35.800Z,7.90
2018-02-14T14:00:03.313Z,6.77
2018-02-14T14:02:30.784Z,7.53
2018-02-14T14:04:58.294Z,6.77
2018-02-14T14:07:25.778Z,7.10
2018-02-14T14:09:53.280Z,7.10
2018-02-14T14:12:20.785Z,6.57
2018-02-14T14:14:49.054Z,6.37
2018-02-14T14:17:17.295Z,6.20
2018-02-14T14:19:44.793Z,7.20
2018-02-14T14:22:13.036Z,7.43
2018-02-14T14:24:40.565Z,6.13
2018-02-14T14:27:08.052Z,7.43
2018-02-14T14:29:35.575Z,6.93
2018-02-14T14:32:03.097Z,6.93
2018-02-14T14:34:31.336Z,7.00
2018-02-14T14:36:58.852Z,6.73
2018-02-14T14:39:26.400Z,7.03
2018-02-14T14:41:54.634Z,9.03
2018-02-14T14:44:22.100Z,11.47
2018-02-14T14:46:49.631Z,10.30
2018-02-14T14:49:17.104Z,12.17
2018-02-14T14:51:44.618Z,6.63
2018-02-14T14:54:12.098Z,16.87
2018-02-14T14:56:39.612Z,21.10
2018-02-14T14:59:07.868Z,13.33
2018-02-14T15:01:35.384Z,7.23
2018-02-14T15:04:02.873Z,6.33
2018-02-14T15:06:30.369Z,10.53
2018-02-14T15:08:58.608Z,6.20
2018-02-14T15:11:26.105Z,6.67
2018-02-14T15:13:54.344Z,7.63
2018-02-14T15:16:21.853Z,7.90
2018-02-14T15:18:49.340Z,6.67
2018-02-14T15:21:16.854Z,6.57
2018-02-14T15:23:45.097Z,7.83
2018-02-14T15:26:12.604Z,5.83
2018-02-14T15:28:40.060Z,6.37
2018-02-14T15:31:07.570Z,6.60
2018-02-14T15:33:35.051Z,6.37
2018-02-14T15:36:03.333Z,6.37
2018-02-14T15:38:31.566Z,7.93
2018-02-14T15:40:59.040Z,7.70
2018-02-14T15:43:26.535Z,5.83
2018-02-14T15:45:54.057Z,7.53
2018-02-14T15:48:21.517Z,6.67
2018-02-14T15:50:49.008Z,8.10
2018-02-14T15:53:17.265Z,8.33
2018-02-14T15:55:45.546Z,9.90
2018-02-14T15:58:13.800Z,7.00
2018-02-14T16:00:41.268Z,6.87
2018-02-14T16:03:08.756Z,5.90
2018-02-14T16:05:36.260Z,7.60
2018-02-14T16:08:03.733Z,10.63
2018-02-14T16:10:31.228Z,10.83
2018-02-14T16:12:58.748Z,8.67
2018-02-14T16:15:26.213Z,8.07
2018-02-14T16:17:53.709Z,7.87
2018-02-14T16:20:21.179Z,7.43
2018-02-14T16:22:48.678Z,7.43
2018-02-14T16:25:16.178Z,8.60
2018-02-14T16:27:43.712Z,11.17
2018-02-14T16:30:11.173Z,8.07
2018-02-14T16:32:39.435Z,7.97
2018-02-14T16:35:06.917Z,9.57
2018-02-14T16:37:34.425Z,8.50
2018-02-14T16:40:01.895Z,9.30
2018-02-14T16:42:29.396Z,7.83
2018-02-14T16:44:56.873Z,8.63
2018-02-14T16:47:24.344Z,10.10
2018-02-14T16:49:51.853Z,10.10
2018-02-14T16:52:20.090Z,10.13
2018-02-14T16:54:47.585Z,8.67
2018-02-14T16:57:16.657Z,12.63
2018-02-14T16:59:44.212Z,10.03
2018-02-14T17:02:11.721Z,11.40
2018-02-14T17:04:39.284Z,10.13
2018-02-14T17:07:09.586Z,7.90
2018-02-14T17:09:37.850Z,11.73
2018-02-14T17:12:06.121Z,18.50
2018-02-14T17:14:33.622Z,14.90
2018-02-14T17:17:01.095Z,16.10
2018-02-14T17:19:28.597Z,17.73
2018-02-14T17:21:56.084Z,13.57
2018-02-14T17:24:23.661Z,15.20
2018-02-14T17:26:51.193Z,19.27
2018-02-14T17:29:19.449Z,18.00
2018-02-14T17:31:46.969Z,14.43
2018-02-14T17:34:14.519Z,17.70
2018-02-14T17:36:42.039Z,17.67
2018-02-14T17:39:10.279Z,17.33
2018-02-14T17:41:37.802Z,21.37
2018-02-14T17:44:05.270Z,21.17
2018-02-14T17:46:32.769Z,19.00
2018-02-14T17:49:00.244Z,24.50
2018-02-14T17:51:28.528Z,31.60
2018-02-14T17:53:56.081Z,41.07
2018-02-14T17:56:24.343Z,35.53
2018-02-14T17:58:51.836Z,38.40
2018-02-14T18:01:19.508Z,33.63
2018-02-14T18:03:47.002Z,42.57
2018-02-14T18:06:14.604Z,28.50
2018-02-14T18:08:42.840Z,30.77
2018-02-14T18:11:10.345Z,34.73
2018-02-14T18:13:37.855Z,29.20
2018-02-14T18:16:11.029Z,29.07
2018-02-14T18:18:38.505Z,28.23
2018-02-14T18:21:06.023Z,23.40
2018-02-14T18:23:33.502Z,26.93
2018-02-14T18:26:01.023Z,28.00
2018-02-14T18:28:29.273Z,29.83
2018-02-14T18:30:58.475Z,26.37
2018-02-14T18:33:26.023Z,26.70
2018-02-14T18:35:53.504Z,28.83
2018-02-14T18:38:21.778Z,25.50
2018-02-14T18:40:50.116Z,28.13
2018-02-14T18:43:17.642Z,27.27
2018-02-14T18:45:45.113Z,29.97
2018-02-14T18:48:12.706Z,40.63
2018-02-14T18:50:40.359Z,21.50
2018-02-14T18:53:07.890Z,16.77
2018-02-14T18:55:35.398Z,20.60
2018-02-14T18:58:03.692Z,19.30
2018-02-14T19:00:31.995Z,23.37
2018-02-14T19:02:59.506Z,19.53
2018-02-14T19:05:26.984Z,21.97
2018-02-14T19:07:55.298Z,21.20
2018-02-14T19:10:23.525Z,24.23
2018-02-14T19:12:51.806Z,23.33
2018-02-14T19:15:20.049Z,25.40
2018-02-14T19:17:47.553Z,19.03
2018-02-14T19:20:15.951Z,21.07
2018-02-14T19:22:43.469Z,23.53
2018-02-14T19:25:11.716Z,23.63
2018-02-14T19:27:39.226Z,22.83
2018-02-14T19:30:06.714Z,18.97
2018-02-14T19:32:34.242Z,16.83
2018-02-14T19:35:01.819Z,16.00
2018-02-14T19:37:29.314Z,14.23
2018-02-14T19:39:56.812Z,13.83
2018-02-14T19:42:25.058Z,14.47
2018-02-14T19:44:52.569Z,14.27
2018-02-14T19:47:20.040Z,14.03
2018-02-14T19:49:47.584Z,11.80
2018-02-14T19:52:15.059Z,16.47
2018-02-14T19:54:42.836Z,14.27
2018-02-14T19:57:10.331Z,19.00
2018-02-14T19:59:38.649Z,13.47
2018-02-14T20:02:06.223Z,13.07
2018-02-14T20:04:33.745Z,14.30
2018-02-14T20:07:01.987Z,12.33
2018-02-14T20:09:29.773Z,11.20
2018-02-14T20:11:58.015Z,16.30
2018-02-14T20:14:25.536Z,14.57
2018-02-14T20:16:53.198Z,14.13
2018-02-14T20:19:20.709Z,11.77
2018-02-14T20:21:48.209Z,11.83
2018-02-14T20:24:15.874Z,15.90
2018-02-14T20:26:43.342Z,13.23
2018-02-14T20:29:10.816Z,14.23
2018-02-14T20:31:38.450Z,11.73
2018-02-14T20:34:05.929Z,18.77
2018-02-14T20:36:33.433Z,17.23
2018-02-14T20:39:01.706Z,16.93
2018-02-14T20:41:29.207Z,15.27
2018-02-14T20:43:56.693Z,12.80
2018-02-14T20:46:24.968Z,13.73
2018-02-14T20:48:52.423Z,16.03
2018-02-14T20:51:20.018Z,14.00
2018-02-14T20:53:48.263Z,15.73
2018-02-14T20:56:16.695Z,17.20
2018-02-14T20:58:44.203Z,14.33
2018-02-14T21:01:11.690Z,13.77
2018-02-14T21:03:40.871Z,16.67
2018-02-14T21:06:08.388Z,14.40
2018-02-14T21:08:35.904Z,12.77
2018-02-14T21:11:04.149Z,14.47
2018-02-14T21:13:31.659Z,13.53
2018-02-14T21:15:59.149Z,13.60
2018-02-14T21:18:26.665Z,13.07
2018-02-14T21:20:54.925Z,15.87
2018-02-14T21:23:23.265Z,17.80
2018-02-14T21:25:50.793Z,15.00
2018-02-14T21:28:18.267Z,16.03
2018-02-14T21:30:45.762Z,20.90
2018-02-14T21:33:13.237Z,18.10
2018-02-14T21:35:41.557Z,18.70
2018-02-14T21:38:09.041Z,15.07
2018-02-14T21:40:36.578Z,15.73
2018-02-14T21:43:04.079Z,15.00
2018-02-14T21:45:31.593Z,17.87
2018-02-14T21:47:59.069Z,22.87
2018-02-14T21:50:26.570Z,21.60
2018-02-14T21:52:54.826Z,15.10
2018-02-14T21:55:22.314Z,14.60
2018-02-14T21:57:49.795Z,14.07
2018-02-14T22:00:17.312Z,17.87
2018-02-14T22:02:44.782Z,14.83
2018-02-14T22:05:13.055Z,15.40
2018-02-14T22:07:41.316Z,15.03
2018-02-14T22:10:08.821Z,15.97
2018-02-14T22:12:36.314Z,15.17
2018-02-14T22:15:04.596Z,15.40
2018-02-14T22:17:32.072Z,14.60
2018-02-14T22:20:01.654Z,14.40
2018-02-14T22:22:29.124Z,15.53
2018-02-14T22:24:56.622Z,13.00
2018-02-14T22:27:24.105Z,14.60
2018-02-14T22:29:51.748Z,14.03
2018-02-14T22:32:19.206Z,19.27
2018-02-14T22:34:46.708Z,13.60
2018-02-14T22:37:14.194Z,16.27
2018-02-14T22:39:42.547Z,18.43
2018-02-14T22:42:10.058Z,15.97
2018-02-14T22:44:37.556Z,19.57
2018-02-14T22:47:05.033Z,14.43
2018-02-14T22:49:32.541Z,15.57
2018-02-14T22:52:00.022Z,18.53
2018-02-14T22:54:27.516Z,16.03
2018-02-14T22:56:55.824Z,15.90
2018-02-14T22:59:23.338Z,15.13
2018-02-14T23:01:50.841Z,15.83
2018-02-14T23:04:18.331Z,22.83
2018-02-14T23:06:45.809Z,13.93
2018-02-14T23:09:13.345Z,14.37
2018-02-14T23:11:40.815Z,12.93
2018-02-14T23:14:08.334Z,14.50
2018-02-14T23:16:35.853Z,22.57
2018-02-14T23:19:04.118Z,18.73
2018-02-14T23:21:31.659Z,14.33
2018-02-14T23:23:59.110Z,13.43
2018-02-14T23:26:26.661Z,14.17
2018-02-14T23:28:54.157Z,13.17
2018-02-14T23:31:21.687Z,15.20
2018-02-14T23:33:49.165Z,12.97
2018-02-14T23:36:16.690Z,12.37
2018-02-14T23:38:44.153Z,11.33
2018-02-14T23:41:11.654Z,15.40
2018-02-14T23:43:39.892Z,12.67
2018-02-14T23:46:07.381Z,13.97
2018-02-14T23:48:34.848Z,13.93
2018-02-14T23:51:03.132Z,19.70
2018-02-14T23:53:31.435Z,17.67
2018-02-14T23:55:58.937Z,18.30
2018-02-14T23:58:26.418Z,14.40
